Svanen — LKXK — position and weather

sailwx.info

Track history (hours):
 
Tides and Currents Weather Stations Pressure Air Temp Water Temp Dewpoint Dewpoint Depression Visibility Wind Speed Wind Dir Waves Ship Positions

Svanen (Norway)

Ship's website: http://www.svanen.no/english/english.php1

Last reported at 2016-Jul-01 16:33 UTC. Time now 2016-Jul-02 04:00 UTC.
Position N 59°12' E 010°57'.

Length 27 m; draft 2.8 m.

Type: Sailing vessel. MMSI: 259173000.

Date/timePositionNaut miles runAvg speedWind from/ knotsBaromVisibWave heightAir tempDewpointWater temp
2016-Jul-01 16:33N 59°12' E 010°57'0 0.0
2016-Jul-01 15:32N 59°12' E 010°57'0 0.0
2016-Jul-01 14:33N 59°12' E 010°57'0 0.0
2016-Jul-01 13:33N 59°12' E 010°57'0 0.0
2016-Jul-01 12:33N 59°12' E 010°57'0 0.0
2016-Jul-01 11:33N 59°12' E 010°57'0 0.0
2016-Jul-01 10:33N 59°12' E 010°57'0 0.0
2016-Jul-01 09:33N 59°12' E 010°57'0 0.0
2016-Jul-01 08:33N 59°12' E 010°57'0 0.0
2016-Jul-01 07:33N 59°12' E 010°57'0 0.0
2016-Jul-01 06:33N 59°12' E 010°57'0 0.0
2016-Jul-01 05:33N 59°12' E 010°57'0 0.0
2016-Jul-01 04:32N 59°12' E 010°57'0 0.0
2016-Jul-01 03:33N 59°12' E 010°57'0 0.0
2016-Jul-01 02:29N 59°12' E 010°57'0 0.0
2016-Jul-01 01:32N 59°12' E 010°57'0 0.0
2016-Jul-01 00:33N 59°12' E 010°57'0 0.0
2016-Jun-30 23:33N 59°12' E 010°57'0 0.0
2016-Jun-30 22:32N 59°12' E 010°57'0 0.0
2016-Jun-30 21:32N 59°12' E 010°57'0 0.0
2016-Jun-30 20:33N 59°12' E 010°57'0 0.0
2016-Jun-30 19:33N 59°12' E 010°57'0 0.0
2016-Jun-30 18:33N 59°12' E 010°57'0 0.0
2016-Jun-30 17:32N 59°12' E 010°57'0 0.0
2016-Jun-30 16:33N 59°12' E 010°57'0 0.0
2016-Jun-30 15:29N 59°12' E 010°57'0 0.5
2016-Jun-30 14:33N 59°12' E 010°57'6 6.3
2016-Jun-30 13:34N 59°06' E 010°58'5 4.7
2016-Jun-30 12:33N 59°01' E 011°02'0 0.1
2016-Jun-30 11:33N 59°01' E 011°02'0 0.0
2016-Jun-30 10:31N 59°01' E 011°02'0 0.0
2016-Jun-30 09:30N 59°01' E 011°02'0 0.0
2016-Jun-30 08:33N 59°01' E 011°02'0 0.0
2016-Jun-30 07:33N 59°01' E 011°02'0 0.0
2016-Jun-30 06:33N 59°01' E 011°02'0 0.0
2016-Jun-30 05:19N 59°01' E 011°02'0 0.0
2016-Jun-30 04:30N 59°01' E 011°02'0 0.0
2016-Jun-30 01:28N 59°01' E 011°02'0 0.0
2016-Jun-30 00:28N 59°01' E 011°02'0 0.0
2016-Jun-29 23:03N 59°01' E 011°02'0 0.0
2016-Jun-29 21:13N 59°01' E 011°02'0 0.0
2016-Jun-29 20:31N 59°01' E 011°02'0 0.0
2016-Jun-29 19:10N 59°01' E 011°02'0 0.0
2016-Jun-29 17:24N 59°01' E 011°02'0 0.0
2016-Jun-29 16:25N 59°01' E 011°02'0 0.0
2016-Jun-29 15:13N 59°01' E 011°02'0 0.0
2016-Jun-29 14:13N 59°01' E 011°02'0 0.0
2016-Jun-29 13:32N 59°01' E 011°02'3 3.0
2016-Jun-29 12:34N 59°01' E 010°57'5 5.1
2016-Jun-29 11:34N 59°03' E 010°47'5 4.9
2016-Jun-29 10:33N 59°05' E 010°39'6 5.7
2016-Jun-29 09:34N 59°08' E 010°30'4 3.7
2016-Jun-29 08:34N 59°10' E 010°23'0 0.0
2016-Jun-29 07:32N 59°10' E 010°23'0 0.0
2016-Jun-29 06:32N 59°10' E 010°23'0 0.0
2016-Jun-29 05:31N 59°10' E 010°23'0 0.0
2016-Jun-29 04:32N 59°10' E 010°23'0 0.0
2016-Jun-29 03:32N 59°10' E 010°23'0 0.0
2016-Jun-29 02:31N 59°10' E 010°23'0 0.0
2016-Jun-29 01:29N 59°10' E 010°23'0 0.0
2016-Jun-29 00:32N 59°10' E 010°23'0 0.0
2016-Jun-28 23:29N 59°10' E 010°23'0 0.0
2016-Jun-28 22:32N 59°10' E 010°23'0 0.0
2016-Jun-28 21:31N 59°10' E 010°23'0 0.0
2016-Jun-28 20:32N 59°10' E 010°23'0 0.0
2016-Jun-28 19:31N 59°10' E 010°23'0 0.0
2016-Jun-28 18:32N 59°10' E 010°23'0 0.0
2016-Jun-28 17:32N 59°10' E 010°23'0 0.0
2016-Jun-28 16:32N 59°10' E 010°23'0 0.0
2016-Jun-28 15:32N 59°10' E 010°23'0 0.0
2016-Jun-28 14:32N 59°10' E 010°23'0 0.0
2016-Jun-28 13:32N 59°10' E 010°23'2 2.5
2016-Jun-28 12:33N 59°10' E 010°28'3 3.1
2016-Jun-28 11:34N 59°12' E 010°33'4 4.1
2016-Jun-28 10:33N 59°16' E 010°32'7 6.8
2016-Jun-28 09:34N 59°23' E 010°33'8 7.7
2016-Jun-28 08:34N 59°30' E 010°34'7 6.7
2016-Jun-28 07:34N 59°37' E 010°37'4 3.8
2016-Jun-28 06:33N 59°40' E 010°36'0 0.0
2016-Jun-28 04:33N 59°40' E 010°36'0 0.0
2016-Jun-28 02:24N 59°40' E 010°36'0 0.0
2016-Jun-28 01:30N 59°40' E 010°36'0 0.0
2016-Jun-28 00:23N 59°40' E 010°36'0 0.0
2016-Jun-27 23:27N 59°40' E 010°36'0 0.0
2016-Jun-27 22:32N 59°40' E 010°36'0 0.0
2016-Jun-27 21:33N 59°40' E 010°36'0 0.0
2016-Jun-27 20:27N 59°40' E 010°36'0 0.0
2016-Jun-27 19:24N 59°40' E 010°36'0 0.0
2016-Jun-27 18:24N 59°40' E 010°36'0 0.0
2016-Jun-27 17:29N 59°40' E 010°36'0 0.0
2016-Jun-27 16:33N 59°40' E 010°36'0 0.0
2016-Jun-27 15:33N 59°40' E 010°36'3 3.2
2016-Jun-27 14:33N 59°43' E 010°32'6 5.5
2016-Jun-27 13:33N 59°49' E 010°34'7 0.2
2016-Jun-25 21:16N 59°54' E 010°42'0 0.0
2016-Jun-25 20:28N 59°54' E 010°42'  
Track history (hours):
 
Tides and Currents Weather Stations Pressure Air Temp Water Temp Dewpoint Dewpoint Depression Visibility Wind Speed Wind Dir Waves Ship Positions

Svanen (Norway)

Ship's website: http://www.svanen.no/english/english.php1

Last reported at 2016-Jul-01 16:33 UTC. Time now 2016-Jul-02 04:00 UTC.
Position N 59°12' E 010°57'.

Length 27 m; draft 2.8 m.

Type: Sailing vessel. MMSI: 259173000.

Date/timePositionNaut miles runAvg speedWind from/ knotsBaromVisibWave heightAir tempDewpointWater temp
2016-Jul-01 16:33N 59°12' E 010°57'0 0.0
2016-Jul-01 15:32N 59°12' E 010°57'0 0.0
2016-Jul-01 14:33N 59°12' E 010°57'0 0.0
2016-Jul-01 13:33N 59°12' E 010°57'0 0.0
2016-Jul-01 12:33N 59°12' E 010°57'0 0.0
2016-Jul-01 11:33N 59°12' E 010°57'0 0.0
2016-Jul-01 10:33N 59°12' E 010°57'0 0.0
2016-Jul-01 09:33N 59°12' E 010°57'0 0.0
2016-Jul-01 08:33N 59°12' E 010°57'0 0.0
2016-Jul-01 07:33N 59°12' E 010°57'0 0.0
2016-Jul-01 06:33N 59°12' E 010°57'0 0.0
2016-Jul-01 05:33N 59°12' E 010°57'0 0.0
2016-Jul-01 04:32N 59°12' E 010°57'0 0.0
2016-Jul-01 03:33N 59°12' E 010°57'0 0.0
2016-Jul-01 02:29N 59°12' E 010°57'0 0.0
2016-Jul-01 01:32N 59°12' E 010°57'0 0.0
2016-Jul-01 00:33N 59°12' E 010°57'0 0.0
2016-Jun-30 23:33N 59°12' E 010°57'0 0.0
2016-Jun-30 22:32N 59°12' E 010°57'0 0.0
2016-Jun-30 21:32N 59°12' E 010°57'0 0.0
2016-Jun-30 20:33N 59°12' E 010°57'0 0.0
2016-Jun-30 19:33N 59°12' E 010°57'0 0.0
2016-Jun-30 18:33N 59°12' E 010°57'0 0.0
2016-Jun-30 17:32N 59°12' E 010°57'0 0.0
2016-Jun-30 16:33N 59°12' E 010°57'0 0.0
2016-Jun-30 15:29N 59°12' E 010°57'0 0.5
2016-Jun-30 14:33N 59°12' E 010°57'6 6.3
2016-Jun-30 13:34N 59°06' E 010°58'5 4.7
2016-Jun-30 12:33N 59°01' E 011°02'0 0.1
2016-Jun-30 11:33N 59°01' E 011°02'0 0.0
2016-Jun-30 10:31N 59°01' E 011°02'0 0.0
2016-Jun-30 09:30N 59°01' E 011°02'0 0.0
2016-Jun-30 08:33N 59°01' E 011°02'0 0.0
2016-Jun-30 07:33N 59°01' E 011°02'0 0.0
2016-Jun-30 06:33N 59°01' E 011°02'0 0.0
2016-Jun-30 05:19N 59°01' E 011°02'0 0.0
2016-Jun-30 04:30N 59°01' E 011°02'0 0.0
2016-Jun-30 01:28N 59°01' E 011°02'0 0.0
2016-Jun-30 00:28N 59°01' E 011°02'0 0.0
2016-Jun-29 23:03N 59°01' E 011°02'0 0.0
2016-Jun-29 21:13N 59°01' E 011°02'0 0.0
2016-Jun-29 20:31N 59°01' E 011°02'0 0.0
2016-Jun-29 19:10N 59°01' E 011°02'0 0.0
2016-Jun-29 17:24N 59°01' E 011°02'0 0.0
2016-Jun-29 16:25N 59°01' E 011°02'0 0.0
2016-Jun-29 15:13N 59°01' E 011°02'0 0.0
2016-Jun-29 14:13N 59°01' E 011°02'0 0.0
2016-Jun-29 13:32N 59°01' E 011°02'3 3.0
2016-Jun-29 12:34N 59°01' E 010°57'5 5.1
2016-Jun-29 11:34N 59°03' E 010°47'5 4.9
2016-Jun-29 10:33N 59°05' E 010°39'6 5.7
2016-Jun-29 09:34N 59°08' E 010°30'4 3.7
2016-Jun-29 08:34N 59°10' E 010°23'0 0.0
2016-Jun-29 07:32N 59°10' E 010°23'0 0.0
2016-Jun-29 06:32N 59°10' E 010°23'0 0.0
2016-Jun-29 05:31N 59°10' E 010°23'0 0.0
2016-Jun-29 04:32N 59°10' E 010°23'0 0.0
2016-Jun-29 03:32N 59°10' E 010°23'0 0.0
2016-Jun-29 02:31N 59°10' E 010°23'0 0.0
2016-Jun-29 01:29N 59°10' E 010°23'0 0.0
2016-Jun-29 00:32N 59°10' E 010°23'0 0.0
2016-Jun-28 23:29N 59°10' E 010°23'0 0.0
2016-Jun-28 22:32N 59°10' E 010°23'0 0.0
2016-Jun-28 21:31N 59°10' E 010°23'0 0.0
2016-Jun-28 20:32N 59°10' E 010°23'0 0.0
2016-Jun-28 19:31N 59°10' E 010°23'0 0.0
2016-Jun-28 18:32N 59°10' E 010°23'0 0.0
2016-Jun-28 17:32N 59°10' E 010°23'0 0.0
2016-Jun-28 16:32N 59°10' E 010°23'0 0.0
2016-Jun-28 15:32N 59°10' E 010°23'0 0.0
2016-Jun-28 14:32N 59°10' E 010°23'0 0.0
2016-Jun-28 13:32N 59°10' E 010°23'2 2.5
2016-Jun-28 12:33N 59°10' E 010°28'3 3.1
2016-Jun-28 11:34N 59°12' E 010°33'4 4.1
2016-Jun-28 10:33N 59°16' E 010°32'7 6.8
2016-Jun-28 09:34N 59°23' E 010°33'8 7.7
2016-Jun-28 08:34N 59°30' E 010°34'7 6.7
2016-Jun-28 07:34N 59°37' E 010°37'4 3.8
2016-Jun-28 06:33N 59°40' E 010°36'0 0.0
2016-Jun-28 04:33N 59°40' E 010°36'0 0.0
2016-Jun-28 02:24N 59°40' E 010°36'0 0.0
2016-Jun-28 01:30N 59°40' E 010°36'0 0.0
2016-Jun-28 00:23N 59°40' E 010°36'0 0.0
2016-Jun-27 23:27N 59°40' E 010°36'0 0.0
2016-Jun-27 22:32N 59°40' E 010°36'0 0.0
2016-Jun-27 21:33N 59°40' E 010°36'0 0.0
2016-Jun-27 20:27N 59°40' E 010°36'0 0.0
2016-Jun-27 19:24N 59°40' E 010°36'0 0.0
2016-Jun-27 18:24N 59°40' E 010°36'0 0.0
2016-Jun-27 17:29N 59°40' E 010°36'0 0.0
2016-Jun-27 16:33N 59°40' E 010°36'0 0.0
2016-Jun-27 15:33N 59°40' E 010°36'3 3.2
2016-Jun-27 14:33N 59°43' E 010°32'6 5.5
2016-Jun-27 13:33N 59°49' E 010°34'7 0.2
2016-Jun-25 21:16N 59°54' E 010°42'0 0.0
2016-Jun-25 20:28N 59°54' E 010°42'  

Dump ship's entire track history